sensor_id;sensor_type;location;lat;lon;timestamp;P1;durP1;ratioP1;P2;durP2;ratioP2
12846;SDS011;6492;48.128;8.320;2022-08-19T05:00:05;44.90;;;30.07;;
12846;SDS011;6492;48.128;8.320;2022-08-19T07:50:11;44.03;;;32.13;;
12846;SDS011;6492;48.128;8.320;2022-08-19T07:54:59;43.80;;;32.47;;
12846;SDS011;6492;48.128;8.320;2022-08-19T08:04:15;43.40;;;32.77;;
12846;SDS011;6492;48.128;8.320;2022-08-19T08:08:38;41.40;;;30.83;;
12846;SDS011;6492;48.128;8.320;2022-08-19T08:12:58;42.67;;;31.27;;
12846;SDS011;6492;48.128;8.320;2022-08-19T08:17:02;40.47;;;30.87;;
12846;SDS011;6492;48.128;8.320;2022-08-19T08:21:07;40.43;;;31.17;;
12846;SDS011;6492;48.128;8.320;2022-08-19T08:25:13;41.67;;;32.00;;
12846;SDS011;6492;48.128;8.320;2022-08-19T08:29:19;42.70;;;33.30;;
12846;SDS011;6492;48.128;8.320;2022-08-19T08:33:23;41.63;;;32.13;;
12846;SDS011;6492;48.128;8.320;2022-08-19T08:37:44;37.77;;;30.60;;
12846;SDS011;6492;48.128;8.320;2022-08-19T08:41:49;36.60;;;30.03;;
12846;SDS011;6492;48.128;8.320;2022-08-19T08:46:03;40.53;;;32.20;;
12846;SDS011;6492;48.128;8.320;2022-08-19T08:50:12;35.60;;;29.87;;
12846;SDS011;6492;48.128;8.320;2022-08-19T08:54:23;32.90;;;28.50;;
12846;SDS011;6492;48.128;8.320;2022-08-19T08:58:32;35.57;;;31.23;;
12846;SDS011;6492;48.128;8.320;2022-08-19T09:02:44;36.80;;;29.73;;
12846;SDS011;6492;48.128;8.320;2022-08-19T09:07:00;38.00;;;31.10;;
12846;SDS011;6492;48.128;8.320;2022-08-19T09:11:19;35.00;;;31.20;;
12846;SDS011;6492;48.128;8.320;2022-08-19T09:15:52;40.40;;;31.47;;
12846;SDS011;6492;48.128;8.320;2022-08-19T09:20:06;40.07;;;31.97;;
12846;SDS011;6492;48.128;8.320;2022-08-19T09:24:17;38.00;;;30.73;;
12846;SDS011;6492;48.128;8.320;2022-08-19T09:28:20;34.63;;;29.63;;
12846;SDS011;6492;48.128;8.320;2022-08-19T09:32:22;36.30;;;31.03;;
12846;SDS011;6492;48.128;8.320;2022-08-19T09:36:26;36.33;;;30.90;;
12846;SDS011;6492;48.128;8.320;2022-08-19T09:40:34;37.33;;;31.30;;
12846;SDS011;6492;48.128;8.320;2022-08-19T09:44:36;37.13;;;30.27;;
12846;SDS011;6492;48.128;8.320;2022-08-19T09:48:39;36.70;;;31.20;;
12846;SDS011;6492;48.128;8.320;2022-08-19T09:52:55;37.17;;;30.97;;
12846;SDS011;6492;48.128;8.320;2022-08-19T09:57:46;38.13;;;30.17;;
12846;SDS011;6492;48.128;8.320;2022-08-19T10:01:59;34.63;;;30.33;;
12846;SDS011;6492;48.128;8.320;2022-08-19T10:10:40;37.40;;;31.20;;
12846;SDS011;6492;48.128;8.320;2022-08-19T10:14:45;32.97;;;28.43;;
12846;SDS011;6492;48.128;8.320;2022-08-19T10:18:48;33.17;;;27.83;;
12846;SDS011;6492;48.128;8.320;2022-08-19T10:22:50;33.53;;;27.90;;
12846;SDS011;6492;48.128;8.320;2022-08-19T10:27:00;32.90;;;27.93;;
12846;SDS011;6492;48.128;8.320;2022-08-19T10:31:05;33.00;;;29.40;;
12846;SDS011;6492;48.128;8.320;2022-08-19T10:35:26;31.10;;;27.73;;
12846;SDS011;6492;48.128;8.320;2022-08-19T10:39:36;33.07;;;29.60;;
12846;SDS011;6492;48.128;8.320;2022-08-19T10:43:38;31.93;;;28.23;;
12846;SDS011;6492;48.128;8.320;2022-08-19T10:52:12;31.70;;;28.40;;
12846;SDS011;6492;48.128;8.320;2022-08-19T10:56:45;30.00;;;26.77;;
12846;SDS011;6492;48.128;8.320;2022-08-19T11:51:07;24.23;;;21.93;;
12846;SDS011;6492;48.128;8.320;2022-08-19T11:55:10;26.00;;;23.43;;
12846;SDS011;6492;48.128;8.320;2022-08-19T11:59:13;24.93;;;22.63;;
12846;SDS011;6492;48.128;8.320;2022-08-19T12:03:14;27.37;;;24.77;;
12846;SDS011;6492;48.128;8.320;2022-08-19T13:18:22;20.83;;;18.92;;
12846;SDS011;6492;48.128;8.320;2022-08-19T13:22:25;20.83;;;18.83;;
12846;SDS011;6492;48.128;8.320;2022-08-19T13:26:41;19.38;;;17.58;;
12846;SDS011;6492;48.128;8.320;2022-08-19T13:35:42;18.40;;;16.60;;
12846;SDS011;6492;48.128;8.320;2022-08-19T13:39:47;19.33;;;17.52;;
12846;SDS011;6492;48.128;8.320;2022-08-19T13:44:00;17.00;;;15.25;;
12846;SDS011;6492;48.128;8.320;2022-08-19T13:48:03;16.50;;;15.00;;
12846;SDS011;6492;48.128;8.320;2022-08-19T13:52:09;17.27;;;15.77;;
12846;SDS011;6492;48.128;8.320;2022-08-19T13:56:19;16.15;;;14.57;;
12846;SDS011;6492;48.128;8.320;2022-08-19T14:00:22;15.20;;;13.90;;
12846;SDS011;6492;48.128;8.320;2022-08-19T14:04:27;14.40;;;13.10;;
12846;SDS011;6492;48.128;8.320;2022-08-19T14:08:31;17.30;;;15.80;;
12846;SDS011;6492;48.128;8.320;2022-08-19T14:12:33;15.57;;;14.27;;
12846;SDS011;6492;48.128;8.320;2022-08-19T14:16:35;15.88;;;14.38;;
12846;SDS011;6492;48.128;8.320;2022-08-19T14:20:37;15.48;;;14.18;;
12846;SDS011;6492;48.128;8.320;2022-08-19T14:24:40;15.27;;;13.98;;
12846;SDS011;6492;48.128;8.320;2022-08-19T14:28:42;14.70;;;13.43;;
12846;SDS011;6492;48.128;8.320;2022-08-19T14:33:01;14.35;;;13.05;;
12846;SDS011;6492;48.128;8.320;2022-08-19T14:37:04;13.68;;;12.50;;
12846;SDS011;6492;48.128;8.320;2022-08-19T14:41:16;15.40;;;14.07;;
12846;SDS011;6492;48.128;8.320;2022-08-19T14:45:19;15.23;;;13.88;;
12846;SDS011;6492;48.128;8.320;2022-08-19T14:49:21;16.40;;;14.75;;
12846;SDS011;6492;48.128;8.320;2022-08-19T14:57:31;15.32;;;14.10;;
12846;SDS011;6492;48.128;8.320;2022-08-19T15:01:33;14.45;;;13.32;;
12846;SDS011;6492;48.128;8.320;2022-08-19T15:05:35;13.57;;;12.40;;
12846;SDS011;6492;48.128;8.320;2022-08-19T15:09:38;16.70;;;15.02;;
12846;SDS011;6492;48.128;8.320;2022-08-19T15:13:49;14.60;;;13.40;;
12846;SDS011;6492;48.128;8.320;2022-08-19T15:18:09;14.20;;;12.95;;
12846;SDS011;6492;48.128;8.320;2022-08-19T15:31:31;17.40;;;15.90;;
12846;SDS011;6492;48.128;8.320;2022-08-19T17:49:51;16.83;;;15.20;;
12846;SDS011;6492;48.128;8.320;2022-08-19T17:58:59;17.57;;;15.87;;
12846;SDS011;6492;48.128;8.320;2022-08-19T19:31:09;18.07;;;16.27;;
12846;SDS011;6492;48.128;8.320;2022-08-19T19:39:35;18.33;;;16.53;;
12846;SDS011;6492;48.128;8.320;2022-08-19T19:48:47;17.57;;;15.87;;
12846;SDS011;6492;48.128;8.320;2022-08-19T19:57:21;17.37;;;15.60;;
12846;SDS011;6492;48.128;8.320;2022-08-19T20:01:27;17.87;;;15.77;;
12846;SDS011;6492;48.128;8.320;2022-08-19T20:05:31;18.50;;;16.50;;
12846;SDS011;6492;48.128;8.320;2022-08-19T20:10:11;17.73;;;16.03;;
12846;SDS011;6492;48.128;8.320;2022-08-19T20:14:54;18.37;;;16.23;;
12846;SDS011;6492;48.128;8.320;2022-08-19T20:19:48;17.20;;;15.50;;
12846;SDS011;6492;48.128;8.320;2022-08-19T20:24:39;18.13;;;16.23;;
12846;SDS011;6492;48.128;8.320;2022-08-19T20:29:38;16.77;;;15.17;;
12846;SDS011;6492;48.128;8.320;2022-08-19T20:34:13;16.50;;;14.93;;
12846;SDS011;6492;48.128;8.320;2022-08-19T20:38:50;16.77;;;14.97;;
12846;SDS011;6492;48.128;8.320;2022-08-19T20:47:17;14.80;;;13.30;;
12846;SDS011;6492;48.128;8.320;2022-08-19T20:51:27;14.37;;;12.83;;
12846;SDS011;6492;48.128;8.320;2022-08-19T21:00:19;12.80;;;11.50;;
12846;SDS011;6492;48.128;8.320;2022-08-19T21:04:59;11.50;;;10.40;;
12846;SDS011;6492;48.128;8.320;2022-08-19T21:09:43;11.30;;;10.20;;
12846;SDS011;6492;48.128;8.320;2022-08-19T21:22:41;10.83;;;9.83;;
12846;SDS011;6492;48.128;8.320;2022-08-19T21:27:14;10.83;;;9.77;;
12846;SDS011;6492;48.128;8.320;2022-08-19T21:40:04;10.67;;;9.60;;
12846;SDS011;6492;48.128;8.320;2022-08-19T21:44:07;10.33;;;9.33;;
12846;SDS011;6492;48.128;8.320;2022-08-19T21:48:09;10.70;;;9.60;;
12846;SDS011;6492;48.128;8.320;2022-08-19T21:52:18;11.37;;;10.17;;
12846;SDS011;6492;48.128;8.320;2022-08-19T22:19:17;10.17;;;9.03;;
12846;SDS011;6492;48.128;8.320;2022-08-19T22:23:19;11.83;;;9.17;;
12846;SDS011;6492;48.128;8.320;2022-08-19T22:31:45;8.87;;;7.97;;
12846;SDS011;6492;48.128;8.320;2022-08-19T22:35:50;9.03;;;8.20;;
12846;SDS011;6492;48.128;8.320;2022-08-19T22:39:53;9.53;;;8.63;;
12846;SDS011;6492;48.128;8.320;2022-08-19T22:48:07;8.43;;;7.67;;
12846;SDS011;6492;48.128;8.320;2022-08-19T22:52:12;8.80;;;8.00;;
12846;SDS011;6492;48.128;8.320;2022-08-19T22:56:21;9.07;;;8.17;;
12846;SDS011;6492;48.128;8.320;2022-08-19T23:04:52;8.97;;;7.47;;
12846;SDS011;6492;48.128;8.320;2022-08-19T23:08:56;7.33;;;6.60;;
12846;SDS011;6492;48.128;8.320;2022-08-19T23:12:58;8.33;;;7.23;;
12846;SDS011;6492;48.128;8.320;2022-08-19T23:17:01;7.70;;;6.77;;
12846;SDS011;6492;48.128;8.320;2022-08-19T23:21:17;7.53;;;6.83;;
12846;SDS011;6492;48.128;8.320;2022-08-19T23:25:22;7.13;;;6.33;;
12846;SDS011;6492;48.128;8.320;2022-08-19T23:41:52;7.33;;;5.80;;
12846;SDS011;6492;48.128;8.320;2022-08-19T23:45:54;7.33;;;6.07;;
12846;SDS011;6492;48.128;8.320;2022-08-19T23:58:20;7.33;;;6.63;;
